Time;durP1;ratioP1;P1;durP2;ratioP2;P2;SDS_P1;SDS_P2;PMS_P1;PMS_P2;Temp;Humidity;BMP_temperature;BMP_pressure;BME280_temperature;BME280_humidity;BME280_pressure;Samples;Min_cycle;Max_cycle;Signal;HPM_P1;HPM_P2
2023/08/20 00:00:44;;;;;;;5.37;1.93;;;;;;;;;;5032593;28;20233;-49
2023/08/20 00:03:11;;;;;;;4.83;2.10;;;;;;;;;;5033014;28;20205;-48
2023/08/20 00:05:38;;;;;;;3.50;2.10;;;;;;;;;;5033102;28;20211;-48
2023/08/20 00:08:04;;;;;;;3.83;2.00;;;;;;;;;;5032526;28;20228;-48
2023/08/20 00:10:32;;;;;;;6.20;1.80;;;;;;;;;;5032362;28;20298;-48
2023/08/20 00:12:58;;;;;;;4.93;2.60;;;;;;;;;;5028926;28;20612;-47
2023/08/20 00:15:26;;;;;;;3.27;2.13;;;;;;;;;;5030900;28;20206;-48
2023/08/20 00:17:52;;;;;;;7.27;6.00;;;;;;;;;;5032777;28;20646;-48
2023/08/20 00:20:19;;;;;;;4.17;2.70;;;;;;;;;;5032671;28;20230;-48
2023/08/20 00:22:46;;;;;;;4.87;2.00;;;;;;;;;;5032624;28;20197;-48
2023/08/20 00:25:13;;;;;;;4.17;1.90;;;;;;;;;;5032550;28;20193;-48
2023/08/20 00:27:40;;;;;;;5.10;2.40;;;;;;;;;;5032681;28;20196;-47
2023/08/20 00:30:07;;;;;;;3.63;2.17;;;;;;;;;;5032357;28;20209;-48
2023/08/20 00:32:34;;;;;;;4.70;1.90;;;;;;;;;;5032404;28;20203;-47
2023/08/20 00:35:00;;;;;;;3.63;1.83;;;;;;;;;;5032240;28;20202;-48
2023/08/20 00:37:26;;;;;;;4.13;1.70;;;;;;;;;;5032500;28;20217;-48
2023/08/20 00:39:52;;;;;;;3.87;2.00;;;;;;;;;;5032305;28;20224;-47
2023/08/20 00:42:18;;;;;;;4.43;1.90;;;;;;;;;;5032090;28;20238;-48
2023/08/20 00:44:46;;;;;;;3.40;1.73;;;;;;;;;;5032059;28;20251;-48
2023/08/20 00:47:13;;;;;;;3.40;2.00;;;;;;;;;;5032528;28;20196;-48
2023/08/20 00:49:39;;;;;;;4.37;2.13;;;;;;;;;;5031860;28;20189;-47
2023/08/20 00:52:18;;;;;;;3.53;1.80;;;;;;;;;;5031256;28;20199;-47
2023/08/20 00:54:45;;;;;;;3.37;1.87;;;;;;;;;;5032125;28;20194;-47
2023/08/20 00:57:14;;;;;;;3.37;1.80;;;;;;;;;;5032291;28;20204;-48
2023/08/20 00:59:41;;;;;;;5.77;2.40;;;;;;;;;;5032257;28;20672;-47
2023/08/20 01:02:08;;;;;;;4.60;2.13;;;;;;;;;;5031609;28;20319;-47
2023/08/20 01:04:34;;;;;;;3.50;1.83;;;;;;;;;;5031833;28;20277;-47
2023/08/20 01:07:03;;;;;;;3.00;2.63;;;;;;;;;;5031850;28;20669;-47
2023/08/20 01:09:38;;;;;;;4.27;2.40;;;;;;;;;;5031568;28;20766;-48
2023/08/20 01:12:04;;;;;;;6.27;2.10;;;;;;;;;;5031799;28;20211;-48
2023/08/20 01:14:30;;;;;;;4.37;1.90;;;;;;;;;;5031817;28;20197;-47
2023/08/20 01:16:56;;;;;;;6.23;2.17;;;;;;;;;;5031583;28;20201;-47
2023/08/20 01:19:24;;;;;;;3.93;1.97;;;;;;;;;;5032003;28;20198;-48
2023/08/20 01:22:01;;;;;;;4.00;1.80;;;;;;;;;;5031564;28;20220;-48
2023/08/20 01:24:33;;;;;;;5.40;2.53;;;;;;;;;;5031695;28;20216;-47
2023/08/20 01:27:09;;;;;;;4.03;2.63;;;;;;;;;;5031236;28;20283;-48
2023/08/20 01:29:36;;;;;;;5.77;2.27;;;;;;;;;;5031719;28;20184;-48
2023/08/20 01:32:03;;;;;;;3.60;2.43;;;;;;;;;;5031552;28;20233;-48
2023/08/20 01:34:29;;;;;;;5.50;2.17;;;;;;;;;;5031554;28;20283;-47
2023/08/20 01:36:55;;;;;;;2.60;2.00;;;;;;;;;;5031377;28;20648;-48
2023/08/20 01:39:21;;;;;;;3.93;2.10;;;;;;;;;;5031471;28;20203;-48
2023/08/20 01:41:47;;;;;;;3.23;1.70;;;;;;;;;;5031193;28;20235;-48
2023/08/20 01:44:13;;;;;;;3.93;2.00;;;;;;;;;;5031226;28;20259;-48
2023/08/20 01:46:41;;;;;;;3.63;1.90;;;;;;;;;;5031642;28;20613;-47
2023/08/20 01:49:07;;;;;;;3.67;2.10;;;;;;;;;;5029414;28;20690;-48
2023/08/20 01:51:33;;;;;;;5.20;2.17;;;;;;;;;;5030902;28;20204;-48
2023/08/20 01:53:59;;;;;;;4.97;2.50;;;;;;;;;;5030761;28;20192;-47
2023/08/20 01:56:25;;;;;;;3.57;2.00;;;;;;;;;;5031216;28;20197;-47
2023/08/20 01:58:51;;;;;;;5.10;2.47;;;;;;;;;;5030841;28;20292;-47
2023/08/20 02:01:17;;;;;;;4.60;1.90;;;;;;;;;;5030571;28;20315;-48
2023/08/20 02:03:45;;;;;;;8.57;2.50;;;;;;;;;;5030760;28;20207;-47
2023/08/20 02:06:11;;;;;;;5.90;2.40;;;;;;;;;;5030777;28;20670;-47
2023/08/20 02:08:37;;;;;;;3.80;2.23;;;;;;;;;;5030227;28;20627;-48
2023/08/20 02:11:03;;;;;;;4.50;1.83;;;;;;;;;;5029761;28;20651;-47
2023/08/20 02:13:29;;;;;;;3.17;1.80;;;;;;;;;;5030527;28;20207;-47
2023/08/20 02:15:59;;;;;;;3.77;2.23;;;;;;;;;;5030280;28;20231;-48
2023/08/20 02:18:25;;;;;;;4.33;2.23;;;;;;;;;;5030657;28;20697;-47
2023/08/20 02:20:52;;;;;;;4.10;2.13;;;;;;;;;;5032359;28;20635;-47
2023/08/20 02:23:18;;;;;;;5.30;2.13;;;;;;;;;;5034757;28;20203;-47
2023/08/20 02:25:44;;;;;;;5.70;2.70;;;;;;;;;;5034544;28;20641;-48
2023/08/20 02:28:11;;;;;;;4.60;2.30;;;;;;;;;;5034852;28;20202;-47
2023/08/20 02:30:39;;;;;;;3.10;2.20;;;;;;;;;;5034686;28;20195;-48
2023/08/20 02:33:05;;;;;;;5.83;2.30;;;;;;;;;;5034343;28;20210;-49
2023/08/20 02:35:31;;;;;;;4.23;2.23;;;;;;;;;;5034725;28;20727;-48
2023/08/20 02:37:59;;;;;;;3.67;2.17;;;;;;;;;;5034445;28;20212;-48
2023/08/20 02:40:25;;;;;;;4.70;2.33;;;;;;;;;;5034375;28;20239;-47
2023/08/20 02:42:51;;;;;;;5.60;2.17;;;;;;;;;;5034201;28;20227;-48
2023/08/20 02:45:17;;;;;;;4.47;2.40;;;;;;;;;;5034132;28;20305;-47
2023/08/20 02:47:43;;;;;;;3.33;1.90;;;;;;;;;;5034237;28;20688;-48
2023/08/20 02:50:09;;;;;;;4.87;2.17;;;;;;;;;;5034212;28;20209;-48
2023/08/20 02:52:35;;;;;;;3.87;2.27;;;;;;;;;;5033995;28;20196;-48
2023/08/20 02:55:04;;;;;;;4.33;2.47;;;;;;;;;;5033742;28;20202;-48
2023/08/20 02:57:30;;;;;;;3.83;2.63;;;;;;;;;;5034012;28;20211;-48
2023/08/20 02:59:57;;;;;;;3.13;2.20;;;;;;;;;;5034043;28;20299;-48
2023/08/20 03:02:23;;;;;;;3.47;2.30;;;;;;;;;;5033892;28;20222;-48
2023/08/20 03:04:49;;;;;;;2.57;1.97;;;;;;;;;;5033806;28;20233;-48
2023/08/20 03:07:15;;;;;;;6.33;2.60;;;;;;;;;;5033549;28;20207;-48
2023/08/20 03:09:41;;;;;;;4.37;2.43;;;;;;;;;;5033935;28;20283;-47
2023/08/20 03:12:09;;;;;;;5.93;2.93;;;;;;;;;;5032945;28;20233;-49
2023/08/20 03:14:35;;;;;;;4.13;2.57;;;;;;;;;;5032524;28;20246;-47
2023/08/20 03:17:01;;;;;;;4.30;2.37;;;;;;;;;;5033336;28;20205;-47
2023/08/20 03:19:30;;;;;;;4.87;2.77;;;;;;;;;;5033639;28;20233;-47
2023/08/20 03:21:56;;;;;;;3.90;2.40;;;;;;;;;;5033290;28;20673;-47
2023/08/20 03:24:22;;;;;;;3.17;2.30;;;;;;;;;;5033544;28;20261;-47
2023/08/20 03:26:48;;;;;;;4.27;2.33;;;;;;;;;;5033287;28;20198;-47
2023/08/20 03:29:15;;;;;;;3.73;2.60;;;;;;;;;;5033342;28;20561;-47
2023/08/20 03:31:41;;;;;;;6.03;2.50;;;;;;;;;;5032190;28;20293;-47
2023/08/20 03:34:09;;;;;;;6.07;2.53;;;;;;;;;;5033258;28;20304;-46
2023/08/20 03:36:35;;;;;;;4.70;2.53;;;;;;;;;;5033253;28;20675;-47
2023/08/20 03:39:03;;;;;;;4.30;2.30;;;;;;;;;;5033213;28;20189;-47
2023/08/20 03:41:29;;;;;;;6.87;3.00;;;;;;;;;;5033116;28;20222;-47
2023/08/20 03:43:55;;;;;;;6.93;2.60;;;;;;;;;;5032564;28;20237;-47
2023/08/20 03:46:22;;;;;;;7.07;2.93;;;;;;;;;;5033177;28;20202;-47
2023/08/20 03:48:48;;;;;;;5.83;2.83;;;;;;;;;;5033083;28;20203;-47
2023/08/20 03:51:14;;;;;;;4.57;2.57;;;;;;;;;;5032986;28;20315;-47
2023/08/20 03:53:40;;;;;;;5.10;2.90;;;;;;;;;;5033202;28;20713;-47
2023/08/20 03:56:06;;;;;;;7.07;3.00;;;;;;;;;;5032878;28;20208;-46
2023/08/20 03:58:32;;;;;;;5.80;2.63;;;;;;;;;;5032953;28;20201;-47
2023/08/20 04:00:58;;;;;;;6.03;2.90;;;;;;;;;;5032623;28;20576;-47
2023/08/20 04:03:26;;;;;;;4.80;2.90;;;;;;;;;;5032920;28;20204;-47
2023/08/20 04:05:52;;;;;;;4.93;2.97;;;;;;;;;;5032846;28;20241;-47
2023/08/20 04:08:18;;;;;;;3.33;2.50;;;;;;;;;;5032622;28;20283;-47
2023/08/20 04:10:47;;;;;;;4.07;2.40;;;;;;;;;;5032623;28;20248;-47
2023/08/20 04:13:13;;;;;;;4.27;2.50;;;;;;;;;;5032625;28;20248;-47
2023/08/20 04:15:40;;;;;;;4.73;2.70;;;;;;;;;;5032569;28;20201;-47
2023/08/20 04:18:06;;;;;;;4.33;2.53;;;;;;;;;;5031842;28;20205;-47
2023/08/20 04:20:34;;;;;;;3.87;2.37;;;;;;;;;;5032339;28;20566;-47
2023/08/20 04:23:00;;;;;;;4.07;2.40;;;;;;;;;;5032268;28;20682;-47
2023/08/20 04:25:26;;;;;;;5.40;3.07;;;;;;;;;;5032341;28;20244;-47
2023/08/20 04:27:52;;;;;;;4.13;2.70;;;;;;;;;;5032393;28;20193;-47
2023/08/20 04:30:18;;;;;;;4.93;2.87;;;;;;;;;;5032235;28;20193;-47
2023/08/20 04:32:44;;;;;;;3.87;2.60;;;;;;;;;;5032312;28;20260;-47
2023/08/20 04:35:10;;;;;;;4.43;2.70;;;;;;;;;;5032149;28;20743;-47
2023/08/20 04:37:39;;;;;;;7.23;2.80;;;;;;;;;;5032394;28;20209;-47
2023/08/20 04:40:05;;;;;;;6.27;3.27;;;;;;;;;;5031941;28;20217;-47
2023/08/20 04:42:31;;;;;;;6.03;3.40;;;;;;;;;;5031820;28;20229;-47
2023/08/20 04:44:57;;;;;;;3.70;2.77;;;;;;;;;;5031481;28;20776;-47
2023/08/20 04:47:23;;;;;;;4.60;3.67;;;;;;;;;;5032257;28;20197;-47
2023/08/20 04:49:50;;;;;;;6.03;3.93;;;;;;;;;;5031711;28;20228;-47
2023/08/20 04:52:16;;;;;;;4.60;3.60;;;;;;;;;;5031599;28;20221;-47
2023/08/20 04:54:43;;;;;;;5.07;3.23;;;;;;;;;;5031829;28;20697;-47
2023/08/20 04:57:09;;;;;;;4.30;3.20;;;;;;;;;;5031707;28;20242;-47
2023/08/20 04:59:35;;;;;;;3.40;3.00;;;;;;;;;;5031756;28;20253;-47
2023/08/20 05:02:01;;;;;;;4.07;2.67;;;;;;;;;;5031430;28;20230;-47
2023/08/20 05:04:27;;;;;;;4.67;3.87;;;;;;;;;;5031891;28;20203;-47
2023/08/20 05:06:53;;;;;;;6.00;3.60;;;;;;;;;;5031597;28;20246;-47
2023/08/20 05:09:19;;;;;;;5.37;3.20;;;;;;;;;;5031410;28;20660;-47
2023/08/20 05:11:46;;;;;;;5.97;3.50;;;;;;;;;;5031512;28;20243;-47
2023/08/20 05:14:12;;;;;;;7.97;3.90;;;;;;;;;;5031319;28;20289;-47
2023/08/20 05:16:38;;;;;;;5.67;4.30;;;;;;;;;;5030778;28;20750;-47
2023/08/20 05:19:04;;;;;;;5.73;4.70;;;;;;;;;;5031296;28;20293;-47
2023/08/20 05:21:30;;;;;;;7.50;4.40;;;;;;;;;;5030894;28;20313;-47
2023/08/20 05:23:56;;;;;;;4.77;4.00;;;;;;;;;;5031090;28;20203;-47
2023/08/20 05:26:23;;;;;;;8.67;4.20;;;;;;;;;;5031112;28;20208;-47
2023/08/20 05:28:50;;;;;;;6.20;4.40;;;;;;;;;;5031056;28;20224;-48
2023/08/20 05:31:16;;;;;;;4.50;3.60;;;;;;;;;;5031122;28;20229;-47
2023/08/20 05:33:42;;;;;;;5.53;3.90;;;;;;;;;;5031350;28;20229;-47
2023/08/20 05:36:08;;;;;;;7.00;4.07;;;;;;;;;;5031040;28;20292;-47
2023/08/20 05:38:34;;;;;;;6.77;3.50;;;;;;;;;;5030938;28;20759;-47
2023/08/20 05:41:00;;;;;;;3.33;3.03;;;;;;;;;;5030741;28;20301;-47
2023/08/20 05:43:26;;;;;;;6.27;3.27;;;;;;;;;;5031006;28;20708;-47
2023/08/20 05:45:53;;;;;;;6.13;3.30;;;;;;;;;;5030718;28;20243;-47
2023/08/20 05:48:19;;;;;;;5.80;3.20;;;;;;;;;;5030930;28;20281;-47
2023/08/20 05:50:45;;;;;;;3.77;2.77;;;;;;;;;;5030874;28;20203;-47
2023/08/20 05:53:11;;;;;;;4.03;2.50;;;;;;;;;;5030696;28;20205;-47
2023/08/20 05:55:39;;;;;;;6.17;2.73;;;;;;;;;;5012202;28;20206;-47
2023/08/20 05:58:05;;;;;;;3.43;2.87;;;;;;;;;;5030488;28;20761;-47
2023/08/20 06:00:31;;;;;;;6.43;3.27;;;;;;;;;;5030581;28;20847;-47
2023/08/20 06:02:58;;;;;;;6.43;3.00;;;;;;;;;;5030802;28;20368;-47
2023/08/20 06:05:24;;;;;;;5.50;3.00;;;;;;;;;;5031159;28;20498;-47
2023/08/20 06:07:50;;;;;;;6.33;2.70;;;;;;;;;;5030648;28;20197;-47
2023/08/20 06:10:16;;;;;;;4.13;2.53;;;;;;;;;;5030338;28;20622;-47
2023/08/20 06:12:42;;;;;;;4.57;2.60;;;;;;;;;;5030665;28;20197;-48
2023/08/20 06:15:09;;;;;;;4.07;2.80;;;;;;;;;;5030743;28;20196;-47
2023/08/20 06:17:35;;;;;;;7.70;3.33;;;;;;;;;;5030623;28;20287;-47
2023/08/20 06:20:05;;;;;;;4.63;3.10;;;;;;;;;;5030478;28;20220;-48
2023/08/20 06:22:31;;;;;;;4.93;2.80;;;;;;;;;;5030539;28;20256;-47
2023/08/20 06:24:57;;;;;;;4.13;2.70;;;;;;;;;;5030399;28;20572;-48
2023/08/20 06:27:23;;;;;;;4.33;2.33;;;;;;;;;;5030630;28;20204;-47
2023/08/20 06:29:49;;;;;;;4.20;2.80;;;;;;;;;;5030162;28;20248;-49
2023/08/20 06:32:15;;;;;;;3.50;2.67;;;;;;;;;;5030042;28;20211;-48
2023/08/20 06:34:41;;;;;;;4.83;2.57;;;;;;;;;;5030445;28;20283;-48
2023/08/20 06:37:09;;;;;;;5.13;2.73;;;;;;;;;;5030265;28;20228;-48
2023/08/20 06:39:35;;;;;;;4.53;2.53;;;;;;;;;;5030176;28;20571;-48
2023/08/20 06:42:01;;;;;;;6.87;2.60;;;;;;;;;;5030097;28;20228;-47
2023/08/20 06:44:28;;;;;;;3.43;2.10;;;;;;;;;;5030030;28;20871;-47
2023/08/20 06:46:54;;;;;;;3.73;2.47;;;;;;;;;;5030186;28;20225;-48
2023/08/20 06:49:20;;;;;;;7.27;3.23;;;;;;;;;;5030097;28;20199;-47
2023/08/20 06:51:46;;;;;;;9.63;3.30;;;;;;;;;;5029647;28;20227;-47
2023/08/20 06:54:15;;;;;;;4.60;2.47;;;;;;;;;;5030216;28;20211;-47
2023/08/20 06:56:41;;;;;;;4.93;2.77;;;;;;;;;;5030280;28;20272;-47
2023/08/20 06:59:07;;;;;;;6.57;2.63;;;;;;;;;;5030137;28;20208;-47
2023/08/20 07:01:33;;;;;;;7.67;2.90;;;;;;;;;;5030115;28;20228;-48
2023/08/20 07:03:59;;;;;;;4.80;2.37;;;;;;;;;;5030101;28;20662;-47
2023/08/20 07:06:25;;;;;;;4.63;2.70;;;;;;;;;;5031478;28;20248;-47
2023/08/20 07:08:51;;;;;;;4.17;2.33;;;;;;;;;;5033840;28;20288;-48
2023/08/20 07:11:19;;;;;;;3.87;2.13;;;;;;;;;;5033709;28;20224;-46
2023/08/20 07:13:45;;;;;;;4.83;2.00;;;;;;;;;;5033741;28;20207;-50
2023/08/20 07:16:11;;;;;;;7.87;2.57;;;;;;;;;;5033716;28;20287;-51
2023/08/20 07:18:37;;;;;;;5.30;2.30;;;;;;;;;;5033379;28;20193;-48
2023/08/20 07:21:03;;;;;;;7.40;2.30;;;;;;;;;;5033310;28;20224;-51
2023/08/20 07:23:29;;;;;;;4.77;2.33;;;;;;;;;;5033496;28;20193;-51
2023/08/20 07:26:04;;;;;;;7.17;2.10;;;;;;;;;;5033418;28;20193;-50
2023/08/20 07:31:16;;;;;;;5.87;2.30;;;;;;;;;;5033336;28;20336;-48
2023/08/20 07:33:46;;;;;;;5.53;2.10;;;;;;;;;;5033399;28;20877;-49
2023/08/20 07:36:12;;;;;;;4.10;2.10;;;;;;;;;;5032925;28;20205;-48
2023/08/20 07:38:40;;;;;;;4.33;2.00;;;;;;;;;;5033347;28;20605;-49
2023/08/20 07:41:06;;;;;;;5.53;2.47;;;;;;;;;;5032952;28;20228;-49
2023/08/20 07:43:34;;;;;;;3.23;1.93;;;;;;;;;;5033040;28;20217;-50
2023/08/20 07:46:00;;;;;;;4.00;2.10;;;;;;;;;;5033038;28;20615;-48
2023/08/20 07:48:26;;;;;;;4.57;2.27;;;;;;;;;;5031351;28;20260;-48
2023/08/20 07:50:52;;;;;;;6.43;2.20;;;;;;;;;;5032725;28;20608;-48
2023/08/20 07:53:18;;;;;;;7.00;2.37;;;;;;;;;;5032760;28;20781;-48
2023/08/20 07:55:44;;;;;;;5.03;2.30;;;;;;;;;;5032658;28;20195;-48
2023/08/20 07:58:10;;;;;;;3.67;2.00;;;;;;;;;;5032855;28;20253;-48
2023/08/20 08:00:38;;;;;;;5.67;2.40;;;;;;;;;;5032583;28;20204;-48
2023/08/20 08:03:04;;;;;;;4.50;2.53;;;;;;;;;;5032298;28;20662;-47
2023/08/20 08:05:30;;;;;;;4.63;2.50;;;;;;;;;;5031850;28;20200;-48
2023/08/20 08:07:56;;;;;;;5.30;2.93;;;;;;;;;;5032382;28;20258;-47
2023/08/20 08:10:22;;;;;;;5.87;2.50;;;;;;;;;;5032289;28;20200;-49
2023/08/20 08:12:48;;;;;;;5.37;2.50;;;;;;;;;;5032361;28;20231;-50
2023/08/20 08:15:14;;;;;;;3.53;2.37;;;;;;;;;;5031969;28;20726;-49
2023/08/20 08:17:42;;;;;;;5.00;2.80;;;;;;;;;;5031835;28;20204;-49
2023/08/20 08:20:08;;;;;;;4.57;2.63;;;;;;;;;;5032299;28;20746;-49
2023/08/20 08:22:34;;;;;;;5.90;2.90;;;;;;;;;;5032211;28;20236;-49
2023/08/20 08:25:00;;;;;;;7.77;2.80;;;;;;;;;;5032067;28;20208;-49
2023/08/20 08:27:26;;;;;;;4.37;2.50;;;;;;;;;;5032585;28;20223;-49
2023/08/20 08:29:52;;;;;;;4.37;2.63;;;;;;;;;;5032338;28;20268;-49
2023/08/20 08:32:18;;;;;;;4.50;2.57;;;;;;;;;;5031927;28;20193;-49
2023/08/20 08:34:45;;;;;;;6.20;3.20;;;;;;;;;;5031741;28;20228;-50
2023/08/20 08:37:11;;;;;;;3.87;2.67;;;;;;;;;;5032154;28;20209;-51
2023/08/20 08:39:37;;;;;;;3.70;2.63;;;;;;;;;;5031981;28;20293;-49
2023/08/20 08:42:04;;;;;;;4.37;2.80;;;;;;;;;;5031410;28;20243;-50
2023/08/20 08:44:32;;;;;;;3.83;2.73;;;;;;;;;;5031439;28;20299;-50
2023/08/20 08:46:58;;;;;;;6.00;3.30;;;;;;;;;;5031645;28;20205;-50
2023/08/20 08:49:24;;;;;;;4.33;2.63;;;;;;;;;;5031907;28;20201;-50
2023/08/20 08:51:52;;;;;;;5.00;2.90;;;;;;;;;;5031378;28;20204;-50
2023/08/20 08:54:18;;;;;;;5.47;2.90;;;;;;;;;;5031268;28;20231;-50
2023/08/20 08:56:44;;;;;;;6.37;2.70;;;;;;;;;;5031383;28;20569;-50
2023/08/20 08:59:10;;;;;;;6.50;2.80;;;;;;;;;;5031674;28;20194;-48
2023/08/20 09:01:39;;;;;;;6.10;3.27;;;;;;;;;;5031361;28;20703;-47
2023/08/20 09:04:05;;;;;;;4.83;3.03;;;;;;;;;;5031329;28;20222;-50
2023/08/20 09:06:44;;;;;;;6.00;3.33;;;;;;;;;;5031440;28;20276;-50
2023/08/20 09:09:12;;;;;;;3.23;2.60;;;;;;;;;;5031464;28;20202;-50
2023/08/20 09:11:38;;;;;;;3.27;2.40;;;;;;;;;;5030894;28;20193;-50
2023/08/20 09:14:04;;;;;;;3.37;2.67;;;;;;;;;;5030719;28;20199;-50
2023/08/20 09:16:30;;;;;;;3.63;2.80;;;;;;;;;;5031112;28;20254;-50
2023/08/20 09:18:59;;;;;;;6.03;3.13;;;;;;;;;;5031149;28;20201;-49
2023/08/20 09:21:29;;;;;;;4.90;2.60;;;;;;;;;;5029273;28;20702;-50
2023/08/20 09:23:55;;;;;;;4.00;3.07;;;;;;;;;;5031356;28;20203;-50
2023/08/20 09:26:22;;;;;;;6.53;2.80;;;;;;;;;;5031171;28;20210;-48
2023/08/20 09:28:48;;;;;;;3.83;2.90;;;;;;;;;;5031012;28;20295;-50
2023/08/20 09:31:15;;;;;;;4.10;2.70;;;;;;;;;;5030778;28;20245;-50
2023/08/20 09:33:50;;;;;;;3.73;3.00;;;;;;;;;;5031063;28;20567;-50
2023/08/20 09:36:16;;;;;;;7.27;3.40;;;;;;;;;;5030986;28;20222;-50
2023/08/20 09:38:42;;;;;;;6.17;4.00;;;;;;;;;;5030806;28;20198;-50
2023/08/20 09:41:09;;;;;;;4.67;2.80;;;;;;;;;;5030820;28;20227;-50
2023/08/20 09:43:38;;;;;;;5.83;2.43;;;;;;;;;;5030472;28;20639;-51
2023/08/20 09:46:04;;;;;;;3.93;3.13;;;;;;;;;;5030770;28;20284;-49
2023/08/20 09:48:33;;;;;;;5.33;2.90;;;;;;;;;;5030787;28;20198;-49
2023/08/20 09:51:01;;;;;;;4.33;2.90;;;;;;;;;;5030437;28;20206;-49
2023/08/20 09:53:27;;;;;;;5.83;3.17;;;;;;;;;;5030659;28;20782;-49
2023/08/20 09:55:56;;;;;;;5.50;2.70;;;;;;;;;;5030866;28;20317;-49
2023/08/20 09:58:25;;;;;;;5.97;2.50;;;;;;;;;;5030600;28;20550;-50
2023/08/20 10:00:52;;;;;;;4.50;2.50;;;;;;;;;;5030418;28;20685;-50
2023/08/20 10:03:20;;;;;;;5.37;3.17;;;;;;;;;;5030415;28;20203;-50
2023/08/20 10:05:47;;;;;;;7.07;2.90;;;;;;;;;;5030490;28;20200;-49
2023/08/20 10:08:13;;;;;;;3.27;2.30;;;;;;;;;;5030399;28;20227;-49
2023/08/20 10:10:40;;;;;;;6.33;3.03;;;;;;;;;;5030637;28;20893;-50
2023/08/20 10:13:06;;;;;;;3.63;2.60;;;;;;;;;;5030319;28;20247;-50
2023/08/20 10:15:33;;;;;;;3.37;2.47;;;;;;;;;;5030564;28;20215;-50
2023/08/20 10:18:01;;;;;;;4.07;2.63;;;;;;;;;;5030239;28;20204;-50
2023/08/20 10:20:29;;;;;;;3.07;2.20;;;;;;;;;;5030117;28;20299;-50
2023/08/20 10:23:00;;;;;;;3.77;2.80;;;;;;;;;;5030360;28;20230;-50
2023/08/20 10:25:27;;;;;;;3.97;2.70;;;;;;;;;;5030188;28;20213;-49
2023/08/20 10:27:53;;;;;;;4.23;2.47;;;;;;;;;;5030291;28;20580;-49
2023/08/20 10:30:21;;;;;;;2.67;2.33;;;;;;;;;;5030303;28;20202;-49
2023/08/20 10:32:48;;;;;;;4.40;2.07;;;;;;;;;;5030445;28;20270;-49
2023/08/20 10:35:17;;;;;;;3.07;2.23;;;;;;;;;;5030241;28;20289;-49
2023/08/20 10:38:02;;;;;;;3.83;2.47;;;;;;;;;;5030390;28;20210;-49
2023/08/20 10:40:47;;;;;;;6.47;2.40;;;;;;;;;;5030237;28;20202;-50
2023/08/20 10:43:24;;;;;;;4.27;2.60;;;;;;;;;;5034091;28;20236;-49
2023/08/20 10:46:02;;;;;;;3.73;2.40;;;;;;;;;;5034028;28;20234;-50
2023/08/20 10:48:28;;;;;;;6.07;2.87;;;;;;;;;;5034203;28;20672;-49
2023/08/20 10:50:55;;;;;;;3.43;2.03;;;;;;;;;;5034362;28;20198;-50
2023/08/20 10:53:22;;;;;;;4.00;2.37;;;;;;;;;;5033816;28;20211;-50
2023/08/20 10:55:49;;;;;;;4.87;3.43;;;;;;;;;;5034036;28;20208;-49
2023/08/20 10:58:15;;;;;;;4.60;2.70;;;;;;;;;;5033814;28;20664;-48
2023/08/20 11:00:42;;;;;;;4.17;2.50;;;;;;;;;;5034166;28;20206;-50
2023/08/20 11:03:08;;;;;;;3.20;2.90;;;;;;;;;;5033926;28;20239;-50
2023/08/20 11:05:34;;;;;;;3.70;2.70;;;;;;;;;;5034103;28;20251;-50
2023/08/20 11:08:04;;;;;;;4.07;2.50;;;;;;;;;;5033712;28;20198;-49
2023/08/20 11:10:30;;;;;;;4.13;2.17;;;;;;;;;;5033787;28;20210;-51
2023/08/20 11:12:56;;;;;;;2.97;2.00;;;;;;;;;;5033913;28;20203;-50
2023/08/20 11:15:22;;;;;;;3.73;2.40;;;;;;;;;;5033768;28;20292;-49
2023/08/20 11:17:48;;;;;;;3.70;2.30;;;;;;;;;;5033713;28;20253;-50
2023/08/20 11:20:15;;;;;;;3.53;2.10;;;;;;;;;;5033591;28;20204;-49
2023/08/20 11:22:41;;;;;;;3.30;2.30;;;;;;;;;;5033794;28;20633;-49
2023/08/20 11:25:12;;;;;;;4.50;2.60;;;;;;;;;;5033439;28;20250;-49
2023/08/20 11:27:41;;;;;;;4.23;2.40;;;;;;;;;;5033836;28;20211;-50
2023/08/20 11:30:09;;;;;;;2.77;2.27;;;;;;;;;;5033573;28;20196;-50
2023/08/20 11:32:35;;;;;;;4.03;2.27;;;;;;;;;;5033390;28;20200;-51
2023/08/20 11:35:02;;;;;;;3.97;2.20;;;;;;;;;;5033391;28;20201;-51
2023/08/20 11:37:28;;;;;;;4.13;2.20;;;;;;;;;;5033511;28;20201;-49
2023/08/20 11:39:54;;;;;;;2.53;2.00;;;;;;;;;;5033435;28;20255;-50
2023/08/20 11:42:23;;;;;;;5.03;2.07;;;;;;;;;;5032723;28;20235;-50
2023/08/20 11:44:49;;;;;;;2.80;2.23;;;;;;;;;;5032985;28;20244;-50
2023/08/20 11:47:16;;;;;;;3.20;2.80;;;;;;;;;;5033031;28;20255;-49
2023/08/20 11:49:42;;;;;;;3.67;2.63;;;;;;;;;;5032643;28;20287;-49
2023/08/20 11:52:09;;;;;;;5.70;2.30;;;;;;;;;;5019470;28;20290;-51
2023/08/20 11:54:36;;;;;;;2.53;2.20;;;;;;;;;;5018995;28;20753;-50
2023/08/20 11:57:03;;;;;;;3.83;2.30;;;;;;;;;;5029177;28;20219;-50
2023/08/20 11:59:30;;;;;;;3.03;2.43;;;;;;;;;;5032584;28;20199;-50
2023/08/20 12:01:58;;;;;;;3.33;2.20;;;;;;;;;;5032741;28;20232;-49
2023/08/20 12:04:24;;;;;;;3.33;2.23;;;;;;;;;;5032851;28;20236;-50
2023/08/20 12:07:02;;;;;;;3.17;2.30;;;;;;;;;;5032599;28;20211;-50
2023/08/20 12:09:28;;;;;;;3.43;2.10;;;;;;;;;;5032483;28;20199;-50
2023/08/20 12:11:55;;;;;;;8.67;2.30;;;;;;;;;;5032797;28;20283;-50
2023/08/20 12:14:22;;;;;;;3.27;2.10;;;;;;;;;;5032435;28;20200;-50
2023/08/20 12:16:52;;;;;;;14.17;11.20;;;;;;;;;;5032385;28;20540;-50
2023/08/20 12:19:18;;;;;;;4.10;2.80;;;;;;;;;;5032329;28;20449;-50
2023/08/20 12:21:44;;;;;;;2.20;2.00;;;;;;;;;;5032340;28;20228;-50
2023/08/20 12:24:10;;;;;;;2.53;2.10;;;;;;;;;;5032310;28;20777;-51
2023/08/20 12:26:36;;;;;;;2.73;1.93;;;;;;;;;;5032324;28;20785;-51
2023/08/20 12:29:02;;;;;;;3.60;1.90;;;;;;;;;;5032171;28;20219;-50
2023/08/20 12:31:28;;;;;;;4.60;2.00;;;;;;;;;;5032029;28;20247;-50
2023/08/20 12:33:56;;;;;;;2.90;2.10;;;;;;;;;;5032388;28;20209;-50
2023/08/20 12:36:22;;;;;;;2.40;1.77;;;;;;;;;;5032068;28;20204;-50
2023/08/20 12:38:48;;;;;;;3.50;1.70;;;;;;;;;;5032004;28;20260;-51
2023/08/20 12:41:14;;;;;;;2.90;2.00;;;;;;;;;;5031734;28;20201;-51
2023/08/20 12:43:41;;;;;;;2.30;1.80;;;;;;;;;;5032027;28;20250;-52
2023/08/20 12:46:07;;;;;;;2.70;1.83;;;;;;;;;;5032364;28;20205;-51
2023/08/20 12:48:33;;;;;;;3.33;2.00;;;;;;;;;;5032278;28;20199;-49
2023/08/20 12:51:00;;;;;;;4.27;2.30;;;;;;;;;;5032084;28;20201;-51
2023/08/20 12:53:26;;;;;;;2.67;2.00;;;;;;;;;;5032239;28;20220;-48
2023/08/20 12:55:52;;;;;;;4.50;2.30;;;;;;;;;;5032191;28;20217;-51
2023/08/20 12:58:18;;;;;;;4.20;2.00;;;;;;;;;;5032036;28;20234;-51
2023/08/20 13:00:44;;;;;;;4.50;2.00;;;;;;;;;;5032020;28;20246;-51
2023/08/20 13:03:11;;;;;;;3.07;1.80;;;;;;;;;;5031645;28;20227;-52
2023/08/20 13:05:37;;;;;;;2.67;1.90;;;;;;;;;;5030832;28;20198;-50
2023/08/20 13:08:05;;;;;;;2.43;1.90;;;;;;;;;;5031137;28;20231;-50
2023/08/20 13:10:31;;;;;;;2.73;1.93;;;;;;;;;;5031103;28;20206;-50
2023/08/20 13:13:00;;;;;;;2.97;2.10;;;;;;;;;;5031199;28;20205;-52
2023/08/20 13:15:26;;;;;;;3.20;2.20;;;;;;;;;;5031205;28;20201;-50
2023/08/20 13:17:53;;;;;;;2.00;1.77;;;;;;;;;;5031093;28;20272;-51
2023/08/20 13:20:23;;;;;;;2.40;1.97;;;;;;;;;;5030796;28;20209;-53
2023/08/20 13:22:50;;;;;;;2.33;2.03;;;;;;;;;;5030910;28;20233;-52
2023/08/20 13:25:17;;;;;;;2.53;2.10;;;;;;;;;;5030836;28;20658;-52
2023/08/20 13:27:43;;;;;;;2.87;1.90;;;;;;;;;;5030902;28;20200;-50
2023/08/20 13:30:10;;;;;;;3.53;2.27;;;;;;;;;;5031032;28;20608;-51
2023/08/20 13:32:36;;;;;;;2.27;2.00;;;;;;;;;;5031020;28;20191;-51
2023/08/20 13:35:04;;;;;;;2.60;1.83;;;;;;;;;;5030802;28;20196;-51
2023/08/20 13:37:33;;;;;;;2.37;2.00;;;;;;;;;;5030852;28;20201;-51
2023/08/20 13:39:59;;;;;;;2.97;2.13;;;;;;;;;;5030688;28;20210;-51
2023/08/20 13:42:27;;;;;;;4.50;2.30;;;;;;;;;;5030676;28;20228;-50
2023/08/20 13:44:53;;;;;;;2.70;2.27;;;;;;;;;;5030825;28;20239;-51
2023/08/20 13:47:19;;;;;;;3.40;2.03;;;;;;;;;;5030480;28;20200;-51
2023/08/20 13:49:45;;;;;;;3.47;2.20;;;;;;;;;;5030507;28;20205;-52
2023/08/20 13:52:11;;;;;;;3.60;2.37;;;;;;;;;;5030650;28;20655;-52
2023/08/20 13:54:37;;;;;;;3.23;2.27;;;;;;;;;;5030629;28;20192;-52
2023/08/20 13:57:03;;;;;;;3.33;2.17;;;;;;;;;;5030373;28;20223;-52
2023/08/20 13:59:31;;;;;;;3.93;1.90;;;;;;;;;;5030474;28;20215;-51
2023/08/20 14:01:57;;;;;;;3.70;2.37;;;;;;;;;;5030500;28;20229;-52
2023/08/20 14:04:23;;;;;;;2.43;2.00;;;;;;;;;;5030431;28;20203;-51
2023/08/20 14:06:49;;;;;;;2.17;1.87;;;;;;;;;;5030416;28;20204;-51
2023/08/20 14:09:17;;;;;;;2.30;2.10;;;;;;;;;;5030064;28;20200;-52
2023/08/20 14:11:43;;;;;;;3.23;2.17;;;;;;;;;;5030267;28;20186;-51
2023/08/20 14:14:10;;;;;;;2.83;2.23;;;;;;;;;;5030375;28;20257;-52
2023/08/20 14:16:37;;;;;;;2.23;1.90;;;;;;;;;;5029383;28;20609;-52
2023/08/20 14:19:03;;;;;;;3.03;1.93;;;;;;;;;;5030204;28;20203;-52
2023/08/20 14:21:29;;;;;;;3.83;2.27;;;;;;;;;;5030045;28;20212;-52
2023/08/20 14:23:56;;;;;;;3.53;2.33;;;;;;;;;;5030411;28;20200;-52
2023/08/20 14:26:22;;;;;;;4.23;2.10;;;;;;;;;;5030095;28;20739;-51
2023/08/20 14:28:48;;;;;;;3.93;2.20;;;;;;;;;;5030190;28;20223;-52
2023/08/20 14:31:14;;;;;;;2.20;2.00;;;;;;;;;;5029998;28;20238;-50
2023/08/20 14:33:41;;;;;;;3.43;2.10;;;;;;;;;;5030369;28;20202;-51
2023/08/20 14:36:08;;;;;;;3.47;2.60;;;;;;;;;;5030092;28;20230;-50
2023/08/20 14:38:34;;;;;;;3.20;2.13;;;;;;;;;;5030070;28;20202;-50
2023/08/20 14:41:01;;;;;;;2.33;2.13;;;;;;;;;;5030028;28;20197;-52
2023/08/20 14:43:27;;;;;;;2.70;2.00;;;;;;;;;;5029993;28;20235;-51